Flight Track Log - Related Links

Times and Time Zones

All times are in EDT time to prevent confusion due to time zone crossing. See the ASA124 flight status page for this flight to view local times or setup timezone preferences in your user account.

Time Position Orientation Groundspeed Altitude Reporting Facility
EDT Latitude Longitude Course Direction KTS MPH feet Rate Location/Type
Sun 11:04:18 AM 64.7333 -147.7500 123° Southeast 240 276 4,300  Level Anchorage Center
Sun 11:05:18 AM 64.6833 -147.6000 128° Southeast 270 311 6,700 2,529 Climbing Anchorage Center
Sun 11:06:19 AM 64.6333 -147.4500 128° Southeast 280 322 9,400 2,132 Climbing Anchorage Center
Sun 11:07:19 AM 64.6000 -147.2833 115° Southeast 310 357 11,000 1,450 Climbing Anchorage Center
Sun 11:08:00 AM 64.3873 -146.5195 123° Southeast  Level FlightAware Approximate
Sun 11:08:19 AM 64.5500 -147.0833 120° Southeast 360 414 12,300  Level Anchorage Center
Sun 11:09:00 AM 64.3218 -146.2909 123° Southeast  Level FlightAware Approximate
Sun 11:09:20 AM 64.4833 -146.8833 128° Southeast 380 437 14,100  Level Anchorage Center
Sun 11:10:20 AM 64.4333 -146.6667 118° Southeast 400 460 16,600 2,350 Climbing Anchorage Center
Sun 11:11:20 AM 64.3667 -146.4500 125° Southeast 410 472 18,800 2,132 Climbing Anchorage Center
Sun 11:12:21 AM 64.3000 -146.2167 123° Southeast 420 483 20,900 1,884 Climbing Anchorage Center
Sun 11:13:21 AM 64.2333 -146.0000 125° Southeast 430 495 22,600 1,636 Climbing Anchorage Center
Sun 11:14:22 AM 64.1667 -145.7500 121° Southeast 440 506 24,200 1,425 Climbing Anchorage Center
Sun 11:16:22 AM 64.0167 -145.2667 125° Southeast 460 529 26,900 1,293 Climbing Anchorage Center
Sun 11:17:23 AM 63.9500 -145.0333 123° Southeast 470 541 28,100 1,438 Climbing Anchorage Center
Sun 11:18:23 AM 63.8667 -144.7833 127° Southeast 460 529 29,800 1,500 Climbing Anchorage Center
Sun 11:19:23 AM 63.8000 -144.5500 123° Southeast 460 529 31,100 1,289 Climbing Anchorage Center
Sun 11:20:24 AM 63.7333 -144.3000 121° Southeast 460 529 32,400 1,289 Climbing Anchorage Center
Sun 11:21:24 AM 63.6500 -144.0833 131° Southeast 450 518 33,700 1,140 Climbing Anchorage Center
Sun 11:22:25 AM 63.5833 -143.8667 125° Southeast 460 529 34,700 645 Climbing Anchorage Center
Sun 11:23:25 AM 63.5167 -143.6333 123° Southeast 460 529 35,000 150 Climbing Anchorage Center
Sun 11:24:25 AM 63.4333 -143.4000 129° Southeast 460 529 35,000  Level Anchorage Center
Sun 11:25:25 AM 63.3667 -143.1833 124° Southeast 440 506 35,000  Level Anchorage Center
Sun 11:26:26 AM 63.3000 -142.9500 122° Southeast 460 529 35,000  Level Anchorage Center
Sun 11:46:28 AM 61.5333 -139.3000 148° Southeast 440 506 35,000  Level Anchorage Center
Sun 11:47:00 AM 61.5378 -139.3187 140° Southeast  Level FlightAware Approximate
Sun 11:47:29 AM 61.4333 -139.1500 144° Southeast 440 506 35,000  Level Anchorage Center
Sun 11:48:00 AM 61.4459 -139.1597 140° Southeast  Level FlightAware Approximate
Sun 11:48:29 AM 61.3500 -138.9833 136° Southeast 440 506 35,000  Level Anchorage Center
Sun 11:49:00 AM 61.3539 -139.0017 141° Southeast  Level FlightAware Approximate
Sun 11:49:29 AM 61.2333 -138.8500 151° Southeast 440 506 35,000  Level Anchorage Center
Sun 11:50:00 AM 61.2535 -138.8624 148° Southeast  Level FlightAware Approximate
Sun 11:50:30 AM 61.1333 -138.7167 147° Southeast 440 506 35,000  Level Anchorage Center
Sun 11:51:00 AM 61.1525 -138.7314 148° Southeast  Level FlightAware Approximate
Sun 11:51:30 AM 61.0333 -138.5833 147° Southeast 430 495 35,000  Level Anchorage Center
Sun 11:52:00 AM 61.0513 -138.6012 148° Southeast  Level FlightAware Approximate
Sun 11:52:30 AM 60.9333 -138.4500 147° Southeast 440 506 35,000  Level Anchorage Center
Sun 11:53:31 AM 60.8333 -138.3167 147° Southeast 430 495 35,000  Level Anchorage Center
Sun 11:54:31 AM 60.7333 -138.2000 150° Southeast 430 495 35,000  Level Anchorage Center
Sun 11:55:32 AM 60.6167 -138.0667 151° Southeast 430 495 35,000  Level Anchorage Center
Sun 11:56:32 AM 60.5167 -137.9333 147° Southeast 430 495 35,000  Level Anchorage Center
Sun 11:57:32 AM 60.4167 -137.8167 150° Southeast 430 495 35,000  Level Anchorage Center
Sun 11:58:33 AM 60.3167 -137.6833 147° Southeast 440 506 35,000  Level Anchorage Center
Sun 11:59:33 AM 60.2167 -137.5500 146° Southeast 440 506 35,000  Level Anchorage Center
Sun 12:00:33 PM 60.1000 -137.4333 153° Southeast 430 495 35,000  Level Anchorage Center
Sun 12:01:34 PM 60.0000 -137.3000 146° Southeast 440 506 35,000  Level Anchorage Center
Sun 12:02:34 PM 59.9000 -137.1833 150° Southeast 440 506 35,000  Level Anchorage Center
Sun 12:03:35 PM 59.8000 -137.0500 146° Southeast 440 506 35,000  Level Anchorage Center
Sun 12:04:35 PM 59.6833 -136.9333 153° Southeast 440 506 35,000  Level Anchorage Center
Sun 12:05:35 PM 59.5833 -136.8167 149° Southeast 430 495 35,000  Level Anchorage Center
Sun 12:06:35 PM 59.4833 -136.7000 149° Southeast 430 495 35,000  Level Anchorage Center
Sun 12:07:36 PM 59.3667 -136.5667 150° Southeast 440 506 35,000  Level Anchorage Center
Sun 12:08:36 PM 59.2667 -136.4500 149° Southeast 450 518 35,000  Level Anchorage Center
Sun 12:09:36 PM 59.1667 -136.3333 149° Southeast 440 506 35,000  Level Anchorage Center
Sun 12:10:37 PM 59.0500 -136.2167 153° Southeast 440 506 35,000  Level Anchorage Center
Sun 12:11:37 PM 58.9500 -136.1000 149° Southeast 430 495 35,000  Level Anchorage Center
Sun 12:12:38 PM 58.8500 -135.9833 149° Southeast 440 506 35,000  Level Anchorage Center
Sun 12:13:38 PM 58.7333 -135.8667 153° Southeast 440 506 35,000  Level Anchorage Center
Sun 12:14:38 PM 58.6333 -135.7500 149° Southeast 440 506 35,000  Level Anchorage Center
Sun 12:15:39 PM 58.5333 -135.6333 149° Southeast 440 506 35,000  Level Anchorage Center
Sun 12:16:39 PM 58.4167 -135.5167 152° Southeast 450 518 35,000  Level Anchorage Center
Sun 12:17:39 PM 58.3000 -135.4000 152° Southeast 450 518 35,000  Level Anchorage Center
Sun 12:18:40 PM 58.2000 -135.2833 148° Southeast 450 518 35,000  Level Anchorage Center
Sun 12:19:40 PM 58.1000 -135.1333 142° Southeast 450 518 35,000  Level Anchorage Center
Sun 12:20:41 PM 58.0000 -134.9667 139° Southeast 460 529 35,000  Level Anchorage Center
Sun 12:21:41 PM 57.9000 -134.8167 141° Southeast 460 529 35,000  Level Anchorage Center
Sun 12:22:41 PM 57.8167 -134.6500 133° Southeast 450 518 35,000  Level Anchorage Center
Sun 12:23:42 PM 57.7167 -134.5000 141° Southeast 450 518 35,000  Level Anchorage Center
Sun 12:24:42 PM 57.6167 -134.3500 141° Southeast 450 518 35,000  Level Anchorage Center
Sun 12:25:42 PM 57.5333 -134.2000 136° Southeast 450 518 35,000  Level Anchorage Center
Sun 12:26:42 PM 57.4333 -134.0500 141° Southeast 450 518 35,000  Level Anchorage Center
Sun 12:27:43 PM 57.3333 -133.9000 141° Southeast 450 518 35,000  Level Anchorage Center
Sun 12:28:43 PM 57.2500 -133.7500 136° Southeast 450 518 35,000  Level Anchorage Center
Sun 12:29:44 PM 57.1333 -133.5833 142° Southeast 460 529 35,000  Level Anchorage Center
Sun 12:30:44 PM 57.0500 -133.4500 139° Southeast 450 518 35,000  Level Anchorage Center
Sun 12:31:44 PM 56.9500 -133.2833 138° Southeast 450 518 35,000  Level Anchorage Center
Sun 12:32:45 PM 56.8500 -133.1500 144° Southeast 460 529 35,000  Level Anchorage Center
Sun 12:33:45 PM 56.7500 -133.0000 141° Southeast 450 518 35,000  Level Anchorage Center
Sun 12:34:45 PM 56.6667 -132.8500 135° Southeast 450 518 35,000 397 Level Anchorage Center
Sun 12:35:46 PM 56.5500 -132.6833 142° Southeast 460 529 35,800 744 Climbing Anchorage Center
Sun 12:36:46 PM 56.4500 -132.5500 144° Southeast 460 529 36,500 600 Climbing Anchorage Center
Sun 12:37:46 PM 56.3500 -132.4000 140° Southeast 450 518 37,000 248 Climbing Anchorage Center
Sun 12:38:47 PM 56.2667 -132.2667 138° Southeast 460 529 37,000  Level Anchorage Center
Sun 12:39:47 PM 56.1500 -132.1000 141° Southeast 460 529 37,000  Level Anchorage Center
Sun 12:40:48 PM 56.0667 -131.9667 138° Southeast 460 529 37,000  Level Anchorage Center
Sun 12:41:48 PM 55.9667 -131.8167 140° Southeast 460 529 37,000  Level Anchorage Center
Sun 12:42:48 PM 55.8667 -131.6833 143° Southeast 460 529 37,000  Level Anchorage Center
Sun 12:43:49 PM 55.7500 -131.5333 144° Southeast 460 529 37,000  Level Anchorage Center
Sun 12:44:49 PM 55.6667 -131.4000 138° Southeast 460 529 37,000  Level Anchorage Center
Sun 12:46:49 PM 55.4500 -131.1167 143° Southeast 460 529 37,000  Level Anchorage Center
Sun 12:47:50 PM 55.3500 -130.9667 140° Southeast 460 529 37,000 -397 Level Anchorage Center
Sun 12:48:50 PM 55.2500 -130.8333 143° Southeast 470 541 36,200 -900 Descending Anchorage Center
Sun 12:49:50 PM 55.1500 -130.6833 139° Southeast 470 541 35,200 -398 Descending Anchorage Center
Sun 12:51:51 PM 54.9333 -130.4167 141° Southeast 470 541 35,000 -76 Descending Anchorage Center
Sun 12:52:27 PM 54.8667 -130.3833 164° South 470 541 35,000  Level Vancouver Center
Sun 12:53:27 PM 54.7833 -130.2167 131° Southeast 470 541 35,000  Level Vancouver Center
Sun 12:54:27 PM 54.6667 -130.0833 147° Southeast 470 541 35,000  Level Vancouver Center
Sun 12:55:27 PM 54.5667 -129.9500 142° Southeast 470 541 35,000  Level Vancouver Center
Sun 12:56:27 PM 54.4667 -129.8333 146° Southeast 470 541 35,000  Level Vancouver Center
Sun 12:57:27 PM 54.3500 -129.7000 146° Southeast 470 541 35,000  Level Vancouver Center
Sun 12:58:27 PM 54.2500 -129.5667 142° Southeast 470 541 35,000  Level Vancouver Center
Sun 12:59:27 PM 54.1333 -129.4167 143° Southeast 470 541 35,000  Level Vancouver Center
Sun 01:00:27 PM 54.0333 -129.2833 142° Southeast 470 541 35,000  Level Vancouver Center
Sun 01:01:27 PM 53.9333 -129.1500 142° Southeast 470 541 35,000  Level Vancouver Center
Sun 01:02:27 PM 53.8333 -129.0333 145° Southeast 480 552 35,000  Level Vancouver Center
Sun 01:03:27 PM 53.7167 -128.9000 146° Southeast 470 541 35,000  Level Vancouver Center
Sun 01:04:27 PM 53.6167 -128.7500 138° Southeast 480 552 35,000  Level Vancouver Center
Sun 01:05:27 PM 53.5167 -128.6333 145° Southeast 480 552 35,000  Level Vancouver Center
Sun 01:06:27 PM 53.4000 -128.5000 146° Southeast 480 552 35,000  Level Vancouver Center
Sun 01:07:27 PM 53.3000 -128.3833 145° Southeast 480 552 35,000  Level Vancouver Center
Sun 01:08:26 PM 53.2000 -128.2333 138° Southeast 470 541 35,000  Level Vancouver Center
Sun 01:09:26 PM 53.0833 -128.1000 146° Southeast 480 552 35,000  Level Vancouver Center
Sun 01:10:26 PM 52.9667 -127.9833 149° Southeast 480 552 35,000  Level Vancouver Center
Sun 01:11:26 PM 52.8667 -127.8667 145° Southeast 480 552 35,000  Level Vancouver Center
Sun 01:12:26 PM 52.7500 -127.7167 142° Southeast 480 552 35,000  Level Vancouver Center
Sun 01:13:26 PM 52.6333 -127.6000 149° Southeast 480 552 35,000  Level Vancouver Center
Sun 01:14:26 PM 52.5167 -127.4500 142° Southeast 480 552 35,000  Level Vancouver Center
Sun 01:15:26 PM 52.4333 -127.3333 139° Southeast 480 552 35,000  Level Vancouver Center
Sun 01:16:26 PM 52.3167 -127.2167 149° Southeast 480 552 35,000  Level Vancouver Center
Sun 01:17:26 PM 52.2000 -127.1000 148° Southeast 480 552 35,000  Level Vancouver Center
Sun 01:18:26 PM 52.1000 -126.9833 144° Southeast 480 552 35,000  Level Vancouver Center
Sun 01:19:26 PM 51.9667 -126.8333 145° Southeast 480 552 35,000  Level Vancouver Center
Sun 01:20:26 PM 51.8667 -126.7167 144° Southeast 480 552 35,000  Level Vancouver Center
Sun 01:21:26 PM 51.7667 -126.6000 144° Southeast 480 552 35,000  Level Vancouver Center
Sun 01:22:26 PM 51.6500 -126.4833 148° Southeast 480 552 35,000  Level Vancouver Center
Sun 01:23:26 PM 51.5333 -126.3500 145° Southeast 480 552 35,000  Level Vancouver Center
Sun 01:24:26 PM 51.4333 -126.2333 144° Southeast 480 552 35,000  Level Vancouver Center
Sun 01:25:26 PM 51.3167 -126.1167 148° Southeast 490 564 35,000  Level Vancouver Center
Sun 01:26:26 PM 51.2000 -125.9833 144° Southeast 490 564 35,000  Level Vancouver Center
Sun 01:27:26 PM 51.0833 -125.8667 148° Southeast 480 552 35,000  Level Vancouver Center
Sun 01:28:26 PM 50.9833 -125.7667 148° Southeast 480 552 35,000  Level Vancouver Center
Sun 01:29:26 PM 50.8833 -125.6167 137° Southeast 480 552 35,000  Level Vancouver Center
Sun 01:30:26 PM 50.7667 -125.5167 152° Southeast 480 552 35,000  Level Vancouver Center
Sun 01:31:26 PM 50.6500 -125.4000 148° Southeast 480 552 35,000  Level Vancouver Center
Sun 01:32:26 PM 50.5333 -125.3000 151° Southeast 480 552 35,000  Level Vancouver Center
Sun 01:33:26 PM 50.4167 -125.1667 144° Southeast 480 552 35,000  Level Vancouver Center
Sun 01:34:26 PM 50.3167 -125.0500 143° Southeast 480 552 35,000  Level Vancouver Center
Sun 01:35:26 PM 50.2000 -124.9500 151° Southeast 480 552 35,000  Level Vancouver Center
Sun 01:36:26 PM 50.0833 -124.8333 147° Southeast 480 552 35,000  Level Vancouver Center
Sun 01:37:26 PM 49.9667 -124.7000 144° Southeast 480 552 35,000  Level Vancouver Center
Sun 01:38:26 PM 49.8500 -124.6000 151° Southeast 480 552 35,000  Level Vancouver Center
Sun 01:39:26 PM 49.7500 -124.5000 147° Southeast 480 552 35,000  Level Vancouver Center
Sun 01:40:26 PM 49.6333 -124.3667 143° Southeast 480 552 35,000  Level Vancouver Center
Sun 01:41:26 PM 49.5167 -124.2667 151° Southeast 480 552 35,000  Level Vancouver Center
Sun 01:42:26 PM 49.4000 -124.1667 151° Southeast 480 552 35,000  Level Vancouver Center
Sun 01:43:26 PM 49.3000 -124.0500 143° Southeast 480 552 35,000  Level Vancouver Center
Sun 01:44:26 PM 49.1833 -123.9500 151° Southeast 480 552 35,000  Level Vancouver Center
Sun 01:45:26 PM 49.0667 -123.8167 143° Southeast 480 552 35,000  Level Vancouver Center
Sun 01:46:26 PM 48.9667 -123.7167 147° Southeast 480 552 35,000 -150 Level Vancouver Center
Sun 01:47:26 PM 48.8500 -123.6167 151° Southeast 480 552 34,700 -1,000 Descending Vancouver Center
Sun 01:48:26 PM 48.7333 -123.5167 151° Southeast 480 552 33,000 -2,000 Descending Vancouver Center
Sun 01:49:26 PM 48.6167 -123.4000 147° Southeast 470 541 30,700 -2,050 Descending Vancouver Center
Sun 01:50:26 PM 48.5167 -123.3167 151° Southeast 460 529 28,900 3,278 Descending Vancouver Center
Sun 01:51:03 PM 47.7500 -116.4000 97° East 410 472 36,000 -2,112 Climbing Vancouver Center
Sun 01:52:31 PM 48.3353 -123.1194 280° West 420 483 24,500 -5,436 Descending Seattle Center
Sun 01:53:32 PM 48.2392 -123.0311 149° Southeast 412 474 22,500 -2,023 Descending Seattle Center
Sun 01:53:57 PM 48.1956 -122.9944 151° Southeast 396 456 21,600 -1,967 Descending Seattle Center
Sun 01:54:33 PM 48.1464 -122.9467 147° Southeast 398 458 20,500 -1,906 Descending Seattle Center
Sun 01:55:22 PM 48.0694 -122.8775 149° Southeast 378 435 18,900 -1,839 Descending Seattle Center
Sun 01:55:35 PM 48.0569 -122.8661 149° Southeast 383 441 18,600 -1,701 Descending Seattle Center
Sun 01:56:29 PM 47.9675 -122.7878 150° Southeast 367 422 17,000 -1,774 Descending Seattle Center
Sun 01:57:30 PM 47.8844 -122.7114 148° Southeast 348 400 15,200 -1,759 Descending Seattle Center
Sun 01:58:25 PM 47.8097 -122.6433 149° Southeast 342 394 13,600 -1,739 Descending Seattle Center
Sun 01:58:39 PM 47.7917 -122.6272 149° Southeast 339 390 13,200 -1,574 Descending Seattle Center
Sun 01:59:26 PM 47.7272 -122.5700 149° Southeast 330 380 12,000 -1,279 Descending Seattle Center
Sun 01:59:40 PM 47.7128 -122.5564 148° Southeast 335 386 11,900 -1,184 Descending Seattle Center
Sun 02:00:42 PM 47.6358 -122.4886 149° Southeast 303 349 10,500 -444 Descending Seattle Center
Sun 02:01:28 PM 47.5847 -122.4444 150° Southeast 282 325 11,100 295 Climbing Seattle Center
Sun 02:01:43 PM 47.5664 -122.4358 162° South 287 330 10,800 -787 Descending Seattle Center
Sun 02:02:29 PM 47.5122 -122.4483 189° South 247 284 10,300 -677 Descending Seattle Center
Sun 02:02:45 PM 47.4983 -122.4528 192° South 255 293 10,100 -1,164 Descending Seattle Center
Sun 02:03:36 PM 47.4381 -122.4628 186° South 244 281 9,000 -1,279 Descending Seattle Center
Sun 02:03:46 PM 47.4269 -122.4611 174° South 244 281 8,800 -1,200 Descending Seattle Center
Sun 02:04:31 PM 47.3744 -122.4650 183° South 245 282 7,900 -1,065 Descending Seattle Center
Sun 02:04:48 PM 47.3603 -122.4636 176° South 243 280 7,700 -984 Descending Seattle Center
Sun 02:05:32 PM 47.3078 -122.4653 181° South 237 273 6,900 -1,180 Descending Seattle Center
Sun 02:05:49 PM 47.2897 -122.4650 179° South 237 273 6,500 -1,180 Descending Seattle Center
Sun 02:06:33 PM 47.2450 -122.4539 170° South 236 272 5,700 -1,065 Descending Seattle Center
Sun 02:06:51 PM 47.2372 -122.4289 115° Southeast 233 268 5,400 -984 Descending Seattle Center
Sun 02:07:34 PM 47.2364 -122.3675 91° East 224 258 4,700 -984 Descending Seattle Center
Sun 02:07:52 PM 47.2461 -122.3431 60° Northeast 223 257 4,400 -1,180 Descending Seattle Center
Sun 02:08:35 PM 47.2867 -122.3203 21° North 204 235 3,500 -1,377 Descending Seattle Center
Sun 02:08:53 PM 47.3061 -122.3192 North 218 251 3,000 -787 Descending Seattle Center
Sun 02:09:36 PM 47.3372 -122.3186 North 165 190 2,700 -774 Descending Seattle Center
Sun 02:09:55 PM 47.3511 -122.3189 359° North 167 192 2,200 -1,082 Descending Seattle Center
Sun 02:10:37 PM 47.3794 -122.3181 North 146 168 1,600 -885 Descending Seattle Center
Sun 02:10:56 PM 47.3936 -122.3183 359° North 155 178 1,300 -885 Descending Seattle Center
Sun 02:11:38 PM 47.4222 -122.3208 357° North 154 177 700 -871 Descending Seattle Center
Sun 02:11:58 PM 47.4403 -122.3186 North 155 178 400 -296 Descending Seattle Center
Sun 02:12:59 PM 47.4819 -122.3197 359° North 156 180 300 -98 Descending Seattle Center
Sun 02:14:00 PM 47.4499 -122.3118 217° Southwest  Level Estimated

Login

Don't have an account? Register now (free) for customized features, flight alerts, and more!